Time,TemperatureF,DewpointF,PressureIn,WindDirection,WindDirectionDegrees,WindSpeedMPH,WindSpeedGustMPH,Humidity,HourlyPrecipIn,Conditions,Clouds,dailyrainin,SoftwareType,DateUTC
2013-01-23 00:03:00,37.4,-5.7,30.13,West,270,0.7,4.0,16,0.00,,,0.00,WUHU216HW,2013-01-23 07:03:00,
2013-01-23 00:08:00,37.3,-5.8,30.13,West,270,0.0,1.6,16,0.00,,,0.00,WUHU216HW,2013-01-23 07:08:00,
2013-01-23 00:13:00,36.7,-6.3,30.13,West,270,0.7,0.7,16,0.00,,,0.00,WUHU216HW,2013-01-23 07:13:00,
2013-01-23 00:18:00,36.4,-6.6,30.13,West,270,0.0,0.7,16,0.00,,,0.00,WUHU216HW,2013-01-23 07:18:00,
2013-01-23 00:23:00,35.6,-5.7,30.13,West,270,0.0,2.5,17,0.00,,,0.00,WUHU216HW,2013-01-23 07:23:00,
2013-01-23 00:28:00,34.9,-6.3,30.13,West,270,0.0,2.5,17,0.00,,,0.00,WUHU216HW,2013-01-23 07:28:00,
2013-01-23 00:33:00,34.4,-5.4,30.13,West,270,1.1,1.1,18,0.00,,,0.00,WUHU216HW,2013-01-23 07:33:00,
2013-01-23 00:38:00,33.7,-6.0,30.13,West,270,0.0,1.1,18,0.00,,,0.00,WUHU216HW,2013-01-23 07:38:00,
2013-01-23 00:43:00,33.1,-6.4,30.13,West,270,0.0,0.2,18,0.00,,,0.00,WUHU216HW,2013-01-23 07:43:00,
2013-01-23 00:48:00,32.6,-4.0,30.13,West,270,0.0,0.0,20,0.00,,,0.00,WUHU216HW,2013-01-23 07:48:00,
2013-01-23 00:53:00,32.0,-3.6,30.13,West,270,0.2,0.2,21,0.00,,,0.00,WUHU216HW,2013-01-23 07:53:00,
2013-01-23 00:58:00,31.7,-4.9,30.13,West,270,0.0,0.2,20,0.00,,,0.00,WUHU216HW,2013-01-23 07:58:00,
2013-01-23 01:03:00,32.0,-2.8,30.13,WNW,293,0.0,0.2,22,0.00,,,0.00,WUHU216HW,2013-01-23 08:03:00,
2013-01-23 01:08:00,32.0,-2.8,30.13,WNW,293,0.0,0.2,22,0.00,,,0.00,WUHU216HW,2013-01-23 08:08:00,
2013-01-23 01:33:00,29.3,-4.3,30.13,WNW,293,0.0,0.0,23,0.00,,,0.00,WUHU216HW,2013-01-23 08:33:00,
2013-01-23 01:38:00,29.0,-4.6,30.13,WNW,293,0.9,0.9,23,0.00,,,0.00,WUHU216HW,2013-01-23 08:38:00,
2013-01-23 01:43:00,28.4,-5.0,30.13,WNW,293,1.1,1.8,23,0.00,,,0.00,WUHU216HW,2013-01-23 08:43:00,
2013-01-23 01:48:00,28.3,-5.1,30.13,WNW,293,0.0,1.8,23,0.00,,,0.00,WUHU216HW,2013-01-23 08:48:00,
2013-01-23 01:53:00,27.9,-5.5,30.13,WNW,293,0.0,1.8,23,0.00,,,0.00,WUHU216HW,2013-01-23 08:53:00,
2013-01-23 01:58:00,27.7,-3.0,30.13,NW,315,0.0,1.3,26,0.00,,,0.00,WUHU216HW,2013-01-23 08:58:00,
2013-01-23 02:03:00,27.7,-4.8,30.13,NW,315,0.0,1.8,24,0.00,,,0.00,WUHU216HW,2013-01-23 09:03:00,
2013-01-23 02:08:00,27.5,-5.7,30.13,NW,315,0.2,1.8,23,0.00,,,0.00,WUHU216HW,2013-01-23 09:08:00,
2013-01-23 02:13:00,27.5,-4.9,30.13,NW,315,0.0,0.2,24,0.00,,,0.00,WUHU216HW,2013-01-23 09:13:00,
2013-01-23 02:18:00,27.4,-5.0,30.13,NW,315,0.0,0.4,24,0.00,,,0.00,WUHU216HW,2013-01-23 09:18:00,
2013-01-23 02:23:00,27.4,-5.9,30.13,NW,315,0.0,0.4,23,0.00,,,0.00,WUHU216HW,2013-01-23 09:23:00,
2013-01-23 02:28:00,27.2,-6.0,30.13,NW,315,0.0,0.0,23,0.00,,,0.00,WUHU216HW,2013-01-23 09:28:00,
2013-01-23 02:33:00,27.2,-6.0,30.13,NW,315,0.0,0.0,23,0.00,,,0.00,WUHU216HW,2013-01-23 09:33:00,
2013-01-23 02:38:00,27.2,-6.0,30.13,NW,315,0.0,0.0,23,0.00,,,0.00,WUHU216HW,2013-01-23 09:38:00,
2013-01-23 02:58:00,27.7,-4.8,30.13,NW,315,0.0,0.0,24,0.00,,,0.00,WUHU216HW,2013-01-23 09:58:00,
2013-01-23 03:03:00,27.7,-4.8,30.12,NW,315,0.0,0.0,24,0.00,,,0.00,WUHU216HW,2013-01-23 10:03:00,
2013-01-23 03:08:00,27.7,-4.8,30.12,NW,315,0.0,0.0,24,0.00,,,0.00,WUHU216HW,2013-01-23 10:08:00,
2013-01-23 03:13:00,27.7,-4.8,30.12,NW,315,0.0,0.0,24,0.00,,,0.00,WUHU216HW,2013-01-23 10:13:00,
2013-01-23 03:18:00,27.7,-4.8,30.12,NW,315,0.4,0.9,24,0.00,,,0.00,WUHU216HW,2013-01-23 10:18:00,
2013-01-23 03:23:00,27.7,-4.8,30.13,NW,315,0.0,0.9,24,0.00,,,0.00,WUHU216HW,2013-01-23 10:23:00,
2013-01-23 03:28:00,27.7,-4.8,30.12,NW,315,0.0,0.0,24,0.00,,,0.00,WUHU216HW,2013-01-23 10:28:00,
2013-01-23 03:33:00,27.9,-3.0,30.12,NW,315,0.4,0.4,26,0.00,,,0.00,WUHU216HW,2013-01-23 10:33:00,
2013-01-23 03:38:00,28.1,-4.5,30.12,NW,315,0.0,0.4,24,0.00,,,0.00,WUHU216HW,2013-01-23 10:38:00,
2013-01-23 03:43:00,28.1,-4.5,30.12,NW,315,0.0,0.0,24,0.00,,,0.00,WUHU216HW,2013-01-23 10:43:00,
2013-01-23 03:48:00,28.1,-4.5,30.12,NW,315,0.0,0.0,24,0.00,,,0.00,WUHU216HW,2013-01-23 10:48:00,
2013-01-23 03:53:00,28.3,-4.3,30.11,NW,315,0.0,0.0,24,0.00,,,0.00,WUHU216HW,2013-01-23 10:53:00,
2013-01-23 03:58:00,28.3,-4.3,30.12,NW,315,0.0,0.0,24,0.00,,,0.00,WUHU216HW,2013-01-23 10:58:00,
2013-01-23 04:03:00,28.3,-2.6,30.12,NW,315,0.0,0.0,26,0.00,,,0.00,WUHU216HW,2013-01-23 11:03:00,
2013-01-23 04:08:00,28.4,-4.1,30.12,NW,315,0.0,0.9,24,0.00,,,0.00,WUHU216HW,2013-01-23 11:08:00,
2013-01-23 04:13:00,28.6,-1.4,30.12,NW,315,0.0,0.9,27,0.00,,,0.00,WUHU216HW,2013-01-23 11:13:00,
2013-01-23 04:18:00,29.0,-2.0,30.12,NW,315,0.0,0.0,26,0.00,,,0.00,WUHU216HW,2013-01-23 11:18:00,
2013-01-23 04:23:00,29.0,-2.0,30.12,NW,315,0.0,0.0,26,0.00,,,0.00,WUHU216HW,2013-01-23 11:23:00,
2013-01-23 04:28:00,29.0,-2.0,30.12,NW,315,0.0,0.0,26,0.00,,,0.00,WUHU216HW,2013-01-23 11:28:00,
2013-01-23 04:34:00,29.0,-2.0,30.12,NW,315,0.4,0.7,26,0.00,,,0.00,WUHU216HW,2013-01-23 11:34:00,
2013-01-23 04:39:00,28.8,-2.1,30.12,NNW,338,0.0,0.7,26,0.00,,,0.00,WUHU216HW,2013-01-23 11:39:00,
2013-01-23 04:44:00,28.8,-2.1,30.12,NNW,338,0.0,0.7,26,0.00,,,0.00,WUHU216HW,2013-01-23 11:44:00,
2013-01-23 04:48:00,28.8,-0.4,30.12,NW,315,2.0,2.0,28,0.00,,,0.00,WUHU216HW,2013-01-23 11:48:00,
2013-01-23 04:54:00,29.2,-1.0,30.12,NW,315,0.0,2.0,27,0.00,,,0.00,WUHU216HW,2013-01-23 11:54:00,
2013-01-23 04:58:00,29.3,0.0,30.12,NW,315,0.0,1.1,28,0.00,,,0.00,WUHU216HW,2013-01-23 11:58:00,
2013-01-23 05:04:00,29.3,-0.9,30.12,NW,315,0.0,0.0,27,0.00,,,0.00,WUHU216HW,2013-01-23 12:04:00,
2013-01-23 05:08:00,29.3,-0.9,30.12,NW,315,0.4,0.4,27,0.00,,,0.00,WUHU216HW,2013-01-23 12:08:00,
2013-01-23 05:14:00,29.3,-0.9,30.12,NW,315,0.0,0.4,27,0.00,,,0.00,WUHU216HW,2013-01-23 12:14:00,
2013-01-23 05:19:00,29.3,-0.9,30.12,NW,315,0.2,0.7,27,0.00,,,0.00,WUHU216HW,2013-01-23 12:19:00,
2013-01-23 05:24:00,29.5,-0.7,30.12,NW,315,0.0,0.7,27,0.00,,,0.00,WUHU216HW,2013-01-23 12:24:00,
2013-01-23 05:29:00,29.5,-0.7,30.12,NW,315,0.7,0.7,27,0.00,,,0.00,WUHU216HW,2013-01-23 12:29:00,
2013-01-23 05:34:00,29.7,-0.5,30.13,NW,315,0.0,0.7,27,0.00,,,0.00,WUHU216HW,2013-01-23 12:34:00,
2013-01-23 05:39:00,29.5,-0.7,30.13,NW,315,0.0,0.0,27,0.00,,,0.00,WUHU216HW,2013-01-23 12:39:00,
2013-01-23 05:44:00,29.7,0.4,30.13,NW,315,0.0,0.9,28,0.00,,,0.00,WUHU216HW,2013-01-23 12:44:00,
2013-01-23 05:49:00,29.9,1.4,30.13,NW,315,1.1,1.1,29,0.00,,,0.00,WUHU216HW,2013-01-23 12:49:00,
2013-01-23 05:54:00,29.9,0.5,30.13,WNW,293,0.0,1.1,28,0.00,,,0.00,WUHU216HW,2013-01-23 12:54:00,
2013-01-23 05:59:00,30.1,0.6,30.13,WNW,293,0.9,0.9,28,0.00,,,0.00,WUHU216HW,2013-01-23 12:59:00,
2013-01-23 06:04:00,30.4,1.0,30.13,WNW,293,0.0,2.2,28,0.00,,,0.00,WUHU216HW,2013-01-23 13:04:00,
2013-01-23 06:09:00,30.6,1.1,30.14,WNW,293,1.8,2.2,28,0.00,,,0.00,WUHU216HW,2013-01-23 13:09:00,
2013-01-23 06:14:00,30.6,1.1,30.14,SSW,203,0.0,3.1,28,0.00,,,0.00,WUHU216HW,2013-01-23 13:14:00,
2013-01-23 06:19:00,30.8,0.5,30.14,SSW,203,0.0,3.1,27,0.00,,,0.00,WUHU216HW,2013-01-23 13:19:00,
2013-01-23 06:24:00,31.0,0.5,30.14,West,270,0.2,1.3,27,0.00,,,0.00,WUHU216HW,2013-01-23 13:24:00,
2013-01-23 06:29:00,31.3,0.9,30.14,West,270,0.0,1.3,27,0.00,,,0.00,WUHU216HW,2013-01-23 13:29:00,
2013-01-23 06:34:00,31.1,-0.1,30.14,NNW,338,0.0,0.2,26,0.00,,,0.00,WUHU216HW,2013-01-23 13:34:00,
2013-01-23 06:39:00,31.1,-0.1,30.15,NNW,338,0.0,0.2,26,0.00,,,0.00,WUHU216HW,2013-01-23 13:39:00,
2013-01-23 06:44:00,31.0,-0.3,30.15,NNW,338,0.0,0.0,26,0.00,,,0.00,WUHU216HW,2013-01-23 13:44:00,
2013-01-23 06:49:00,31.0,0.5,30.15,NNW,338,0.0,0.0,27,0.00,,,0.00,WUHU216HW,2013-01-23 13:49:00,
2013-01-23 06:54:00,31.1,0.7,30.14,SSW,203,0.0,3.4,27,0.00,,,0.00,WUHU216HW,2013-01-23 13:54:00,
2013-01-23 06:59:00,31.7,1.3,30.15,SSW,203,0.0,3.4,27,0.00,,,0.00,WUHU216HW,2013-01-23 13:59:00,
2013-01-23 07:04:00,31.7,1.3,30.14,West,270,0.0,1.1,27,0.00,,,0.00,WUHU216HW,2013-01-23 14:04:00,
2013-01-23 07:09:00,31.7,1.3,30.15,West,270,1.6,1.6,27,0.00,,,0.00,WUHU216HW,2013-01-23 14:09:00,
2013-01-23 07:14:00,31.9,1.4,30.14,SW,225,0.0,1.8,27,0.00,,,0.00,WUHU216HW,2013-01-23 14:14:00,
2013-01-23 07:19:00,32.0,0.7,30.15,NNW,338,0.0,1.8,26,0.00,,,0.00,WUHU216HW,2013-01-23 14:19:00,
2013-01-23 07:24:00,32.2,0.8,30.15,NNW,338,0.0,0.4,26,0.00,,,0.00,WUHU216HW,2013-01-23 14:24:00,
2013-01-23 07:29:00,32.2,0.8,30.14,NNW,338,1.1,1.1,26,0.00,,,0.00,WUHU216HW,2013-01-23 14:29:00,
2013-01-23 07:34:00,32.4,1.0,30.14,NW,315,0.4,1.1,26,0.00,,,0.00,WUHU216HW,2013-01-23 14:34:00,
2013-01-23 07:39:00,32.8,1.3,30.14,NW,315,0.4,1.1,26,0.00,,,0.00,WUHU216HW,2013-01-23 14:39:00,
2013-01-23 07:44:00,33.1,-0.2,30.14,NW,315,1.3,1.3,24,0.00,,,0.00,WUHU216HW,2013-01-23 14:44:00,
2013-01-23 07:49:00,34.2,0.8,30.14,NW,315,0.0,1.8,24,0.00,,,0.00,WUHU216HW,2013-01-23 14:49:00,
2013-01-23 07:54:00,34.2,0.8,30.15,NW,315,0.0,1.8,24,0.00,,,0.00,WUHU216HW,2013-01-23 14:54:00,
2013-01-23 07:59:00,34.2,0.8,30.14,NW,315,0.0,0.2,24,0.00,,,0.00,WUHU216HW,2013-01-23 14:59:00,
2013-01-23 08:04:00,34.6,1.1,30.14,NW,315,0.0,0.0,24,0.00,,,0.00,WUHU216HW,2013-01-23 15:04:00,
2013-01-23 08:09:00,34.9,1.5,30.14,NW,315,0.0,0.0,24,0.00,,,0.00,WUHU216HW,2013-01-23 15:09:00,
2013-01-23 08:14:00,34.9,2.3,30.14,NW,315,0.0,0.0,25,0.00,,,0.00,WUHU216HW,2013-01-23 15:14:00,
2013-01-23 08:19:00,35.1,1.5,30.14,NW,315,1.1,1.1,24,0.00,,,0.00,WUHU216HW,2013-01-23 15:19:00,
2013-01-23 08:24:00,35.1,1.5,30.14,NW,315,0.4,1.8,24,0.00,,,0.00,WUHU216HW,2013-01-23 15:24:00,
2013-01-23 08:29:00,35.8,1.3,30.14,NW,315,0.0,1.8,23,0.00,,,0.00,WUHU216HW,2013-01-23 15:29:00,
2013-01-23 08:34:00,36.0,1.4,30.14,NW,315,0.0,0.7,23,0.00,,,0.00,WUHU216HW,2013-01-23 15:34:00,
2013-01-23 08:39:00,36.0,1.4,30.14,NW,315,0.0,0.7,23,0.00,,,0.00,WUHU216HW,2013-01-23 15:39:00,
2013-01-23 08:44:00,36.4,1.7,30.14,NW,315,0.0,0.0,23,0.00,,,0.00,WUHU216HW,2013-01-23 15:44:00,
2013-01-23 08:49:00,36.4,1.7,30.14,WNW,293,2.7,2.7,23,0.00,,,0.00,WUHU216HW,2013-01-23 15:49:00,
2013-01-23 08:54:00,36.7,2.1,30.14,WNW,293,0.0,2.7,23,0.00,,,0.00,WUHU216HW,2013-01-23 15:54:00,
2013-01-23 08:59:00,37.8,2.1,30.15,WNW,293,0.2,2.5,22,0.00,,,0.00,WUHU216HW,2013-01-23 15:59:00,
2013-01-23 09:04:00,38.5,2.6,30.15,WNW,293,1.8,1.8,22,0.00,,,0.00,WUHU216HW,2013-01-23 16:04:00,
2013-01-23 09:09:00,39.2,2.3,30.15,WNW,293,0.0,1.8,21,0.00,,,0.00,WUHU216HW,2013-01-23 16:09:00,
2013-01-23 09:14:00,40.1,3.2,30.15,WNW,293,0.2,2.2,21,0.00,,,0.00,WUHU216HW,2013-01-23 16:14:00,
2013-01-23 09:19:00,41.0,4.0,30.15,WNW,293,0.0,2.2,21,0.00,,,0.00,WUHU216HW,2013-01-23 16:19:00,
2013-01-23 09:24:00,41.8,4.5,30.15,WNW,293,0.0,0.0,21,0.00,,,0.00,WUHU216HW,2013-01-23 16:24:00,
2013-01-23 09:29:00,42.1,4.9,30.15,WNW,293,0.0,0.4,21,0.00,,,0.00,WUHU216HW,2013-01-23 16:29:00,
2013-01-23 09:34:00,42.5,5.1,30.15,WNW,293,0.0,0.4,21,0.00,,,0.00,WUHU216HW,2013-01-23 16:34:00,
2013-01-23 09:39:00,42.7,5.2,30.15,WNW,293,0.0,0.0,21,0.00,,,0.00,WUHU216HW,2013-01-23 16:39:00,
2013-01-23 09:44:00,43.0,5.6,30.15,WNW,293,0.0,0.0,21,0.00,,,0.00,WUHU216HW,2013-01-23 16:44:00,
2013-01-23 09:49:00,43.4,5.9,30.15,WNW,293,0.4,0.7,21,0.00,,,0.00,WUHU216HW,2013-01-23 16:49:00,
2013-01-23 09:54:00,43.6,6.0,30.16,WNW,293,0.0,0.7,21,0.00,,,0.00,WUHU216HW,2013-01-23 16:54:00,
2013-01-23 09:59:00,43.7,6.2,30.16,WNW,293,0.0,0.0,21,0.00,,,0.00,WUHU216HW,2013-01-23 16:59:00,
2013-01-23 10:04:00,43.7,6.2,30.16,WNW,293,0.0,0.0,21,0.00,,,0.00,WUHU216HW,2013-01-23 17:04:00,
2013-01-23 10:09:00,43.9,6.4,30.16,WNW,293,0.2,0.2,21,0.00,,,0.00,WUHU216HW,2013-01-23 17:09:00,
2013-01-23 10:14:00,44.3,6.7,30.16,WNW,293,0.0,2.5,21,0.00,,,0.00,WUHU216HW,2013-01-23 17:14:00,
2013-01-23 10:19:00,44.6,6.1,30.16,WNW,293,0.0,2.5,20,0.00,,,0.00,WUHU216HW,2013-01-23 17:19:00,
2013-01-23 10:24:00,45.2,6.6,30.16,WNW,293,0.2,1.8,20,0.00,,,0.00,WUHU216HW,2013-01-23 17:24:00,
2013-01-23 10:29:00,45.9,7.1,30.16,WNW,293,0.0,1.8,20,0.00,,,0.00,WUHU216HW,2013-01-23 17:29:00,
2013-01-23 10:34:00,46.3,7.4,30.16,WNW,293,0.4,0.4,20,0.00,,,0.00,WUHU216HW,2013-01-23 17:34:00,
2013-01-23 10:39:00,46.4,7.6,30.16,WSW,248,0.2,1.1,20,0.00,,,0.00,WUHU216HW,2013-01-23 17:39:00,
2013-01-23 10:44:00,46.4,7.6,30.16,SSE,158,2.2,2.2,20,0.00,,,0.00,WUHU216HW,2013-01-23 17:44:00,
2013-01-23 10:49:00,46.6,7.8,30.16,SE,135,1.6,2.5,20,0.00,,,0.00,WUHU216HW,2013-01-23 17:49:00,
2013-01-23 10:54:00,47.0,5.0,30.16,South,180,1.6,2.5,18,0.00,,,0.00,WUHU216HW,2013-01-23 17:54:00,
2013-01-23 10:59:00,47.2,5.2,30.16,SW,225,1.3,1.8,18,0.00,,,0.00,WUHU216HW,2013-01-23 17:59:00,
2013-01-23 11:04:00,47.3,3.9,30.16,WSW,248,1.1,1.3,17,0.00,,,0.00,WUHU216HW,2013-01-23 18:04:00,
2013-01-23 11:09:00,47.5,4.0,30.15,WSW,248,1.8,1.8,17,0.00,,,0.00,WUHU216HW,2013-01-23 18:09:00,
2013-01-23 11:13:00,47.5,4.0,30.15,WSW,248,1.8,1.8,17,0.00,,,0.00,WUHU216HW,2013-01-23 18:13:00,
2013-01-23 11:35:00,49.5,5.7,30.13,WSW,248,0.0,0.0,17,0.00,,,0.00,WUHU216HW,2013-01-23 18:35:00,
2013-01-23 11:40:00,49.7,5.8,30.13,SW,225,0.0,1.1,17,0.00,,,0.00,WUHU216HW,2013-01-23 18:40:00,
2013-01-23 11:45:00,49.9,6.0,30.13,SW,225,0.0,1.1,17,0.00,,,0.00,WUHU216HW,2013-01-23 18:45:00,
2013-01-23 11:50:00,50.0,6.1,30.12,South,180,0.4,1.8,17,0.00,,,0.00,WUHU216HW,2013-01-23 18:50:00,
2013-01-23 11:55:00,50.2,6.2,30.12,South,180,0.0,1.8,17,0.00,,,0.00,WUHU216HW,2013-01-23 18:55:00,
2013-01-23 12:00:00,50.4,6.4,30.12,SSE,158,1.1,2.0,17,0.00,,,0.00,WUHU216HW,2013-01-23 19:00:00,
2013-01-23 12:05:00,50.8,6.7,30.12,SSE,158,0.0,2.0,17,0.00,,,0.00,WUHU216HW,2013-01-23 19:05:00,
2013-01-23 12:10:00,51.3,5.6,30.11,SSE,158,0.7,1.3,16,0.00,,,0.00,WUHU216HW,2013-01-23 19:10:00,
2013-01-23 12:15:00,51.5,5.8,30.11,SSE,158,0.0,1.3,16,0.00,,,0.00,WUHU216HW,2013-01-23 19:15:00,
2013-01-23 12:20:00,51.7,5.9,30.11,SSE,158,0.0,1.3,16,0.00,,,0.00,WUHU216HW,2013-01-23 19:20:00,
2013-01-23 12:25:00,51.8,6.0,30.11,SSE,158,1.8,1.8,16,0.00,,,0.00,WUHU216HW,2013-01-23 19:25:00,
2013-01-23 12:30:00,52.0,6.1,30.11,SSE,158,0.0,2.0,16,0.00,,,0.00,WUHU216HW,2013-01-23 19:30:00,
2013-01-23 12:35:00,52.2,6.3,30.11,SSE,158,0.0,2.0,16,0.00,,,0.00,WUHU216HW,2013-01-23 19:35:00,
2013-01-23 12:40:00,52.4,6.5,30.11,SE,135,0.0,0.0,16,0.00,,,0.00,WUHU216HW,2013-01-23 19:40:00,
2013-01-23 12:45:00,52.6,5.0,30.11,SE,135,0.0,0.0,15,0.00,,,0.00,WUHU216HW,2013-01-23 19:45:00,
2013-01-23 12:50:00,52.9,5.4,30.11,South,180,1.6,1.8,15,0.00,,,0.00,WUHU216HW,2013-01-23 19:50:00,
2013-01-23 12:55:00,53.1,5.5,30.11,SSW,203,1.1,1.8,15,0.00,,,0.00,WUHU216HW,2013-01-23 19:55:00,
2013-01-23 13:00:00,53.5,5.8,30.11,SSE,158,1.1,3.4,15,0.00,,,0.00,WUHU216HW,2013-01-23 20:00:00,
2013-01-23 13:05:00,53.6,4.4,30.11,SE,135,1.1,3.4,14,0.00,,,0.00,WUHU216HW,2013-01-23 20:05:00,
2013-01-23 13:10:00,53.6,4.4,30.11,SE,135,0.0,3.1,14,0.00,,,0.00,WUHU216HW,2013-01-23 20:10:00,
2013-01-23 13:15:00,54.0,4.8,30.10,South,180,2.0,2.0,14,0.00,,,0.00,WUHU216HW,2013-01-23 20:15:00,
2013-01-23 13:20:00,54.2,1.9,30.10,South,180,0.0,2.0,12,0.00,,,0.00,WUHU216HW,2013-01-23 20:20:00,
2013-01-23 13:25:00,54.5,3.7,30.10,South,180,0.0,1.8,13,0.00,,,0.00,WUHU216HW,2013-01-23 20:25:00,
2013-01-23 13:30:00,54.7,3.8,30.10,South,180,0.0,0.0,13,0.00,,,0.00,WUHU216HW,2013-01-23 20:30:00,
2013-01-23 13:35:00,54.9,5.5,30.10,South,180,0.0,0.0,14,0.00,,,0.00,WUHU216HW,2013-01-23 20:35:00,
2013-01-23 13:40:00,55.1,4.2,30.10,South,180,0.0,0.0,13,0.00,,,0.00,WUHU216HW,2013-01-23 20:40:00,
2013-01-23 13:45:00,55.1,7.2,30.10,South,180,0.4,0.4,15,0.00,,,0.00,WUHU216HW,2013-01-23 20:45:00,
2013-01-23 13:50:00,55.1,5.7,30.10,SSW,203,2.5,2.7,14,0.00,,,0.00,WUHU216HW,2013-01-23 20:50:00,
2013-01-23 13:55:00,55.3,4.2,30.10,SSW,203,0.0,2.7,13,0.00,,,0.00,WUHU216HW,2013-01-23 20:55:00,
2013-01-23 14:00:00,55.6,4.5,30.10,SW,225,0.0,0.9,13,0.00,,,0.00,WUHU216HW,2013-01-23 21:00:00,
2013-01-23 14:05:00,55.6,4.5,30.10,SW,225,0.0,0.9,13,0.00,,,0.00,WUHU216HW,2013-01-23 21:05:00,
2013-01-23 14:10:00,55.8,4.7,30.10,SW,225,0.0,0.7,13,0.00,,,0.00,WUHU216HW,2013-01-23 21:10:00,
2013-01-23 14:15:00,56.2,5.0,30.10,SW,225,0.0,0.2,13,0.00,,,0.00,WUHU216HW,2013-01-23 21:15:00,
2013-01-23 14:20:00,56.3,5.0,30.10,WNW,293,1.8,1.8,13,0.00,,,0.00,WUHU216HW,2013-01-23 21:20:00,
2013-01-23 14:25:00,56.3,3.5,30.10,WNW,293,0.0,2.9,12,0.00,,,0.00,WUHU216HW,2013-01-23 21:25:00,
2013-01-23 14:30:00,56.5,5.2,30.10,WNW,293,0.0,2.9,13,0.00,,,0.00,WUHU216HW,2013-01-23 21:30:00,
2013-01-23 14:35:00,56.5,3.7,30.10,WNW,293,0.0,0.4,12,0.00,,,0.00,WUHU216HW,2013-01-23 21:35:00,
2013-01-23 14:40:00,56.5,5.2,30.09,SSE,158,0.4,2.5,13,0.00,,,0.00,WUHU216HW,2013-01-23 21:40:00,
2013-01-23 14:45:00,56.3,5.0,30.09,SW,225,0.0,2.5,13,0.00,,,0.00,WUHU216HW,2013-01-23 21:45:00,
2013-01-23 14:50:00,56.0,4.8,30.09,SW,225,0.0,0.9,13,0.00,,,0.00,WUHU216HW,2013-01-23 21:50:00,
2013-01-23 14:55:00,55.6,4.5,30.09,SW,225,0.0,0.2,13,0.00,,,0.00,WUHU216HW,2013-01-23 21:55:00,
2013-01-23 15:00:00,55.4,4.4,30.09,SW,225,0.0,0.2,13,0.00,,,0.00,WUHU216HW,2013-01-23 22:00:00,
2013-01-23 15:05:00,55.1,7.2,30.09,SW,225,0.0,1.1,15,0.00,,,0.00,WUHU216HW,2013-01-23 22:05:00,
2013-01-23 15:10:00,54.7,6.8,30.09,SW,225,0.4,1.1,15,0.00,,,0.00,WUHU216HW,2013-01-23 22:10:00,
2013-01-23 15:15:00,54.4,5.1,30.09,SW,225,0.0,1.1,14,0.00,,,0.00,WUHU216HW,2013-01-23 22:15:00,
2013-01-23 15:20:00,54.0,4.8,30.09,SW,225,1.1,1.6,14,0.00,,,0.00,WUHU216HW,2013-01-23 22:20:00,
2013-01-23 15:25:00,53.8,4.6,30.09,SW,225,0.0,1.6,14,0.00,,,0.00,WUHU216HW,2013-01-23 22:25:00,
2013-01-23 15:30:00,53.6,4.4,30.09,SW,225,0.0,1.3,14,0.00,,,0.00,WUHU216HW,2013-01-23 22:30:00,
2013-01-23 15:35:00,53.5,5.8,30.09,SW,225,0.0,0.0,15,0.00,,,0.00,WUHU216HW,2013-01-23 22:35:00,
2013-01-23 15:40:00,52.9,5.4,30.09,SW,225,0.0,0.0,15,0.00,,,0.00,WUHU216HW,2013-01-23 22:40:00,
2013-01-23 15:45:00,52.6,5.0,30.09,SW,225,1.1,1.1,15,0.00,,,0.00,WUHU216HW,2013-01-23 22:45:00,
2013-01-23 15:50:00,52.2,4.8,30.09,SW,225,0.0,1.1,15,0.00,,,0.00,WUHU216HW,2013-01-23 22:50:00,
2013-01-23 15:55:00,51.7,5.9,30.09,SW,225,0.0,0.4,16,0.00,,,0.00,WUHU216HW,2013-01-23 22:55:00,
2013-01-23 16:00:00,51.1,5.4,30.09,SW,225,1.1,1.1,16,0.00,,,0.00,WUHU216HW,2013-01-23 23:00:00,
2013-01-23 16:05:00,50.8,5.1,30.10,SW,225,0.0,1.1,16,0.00,,,0.00,WUHU216HW,2013-01-23 23:05:00,
2013-01-23 16:10:00,50.4,4.9,30.09,SW,225,0.0,0.4,16,0.00,,,0.00,WUHU216HW,2013-01-23 23:10:00,
2013-01-23 16:15:00,49.9,6.0,30.10,SW,225,0.0,1.3,17,0.00,,,0.00,WUHU216HW,2013-01-23 23:15:00,
2013-01-23 16:20:00,49.3,5.5,30.09,SW,225,0.0,1.3,17,0.00,,,0.00,WUHU216HW,2013-01-23 23:20:00,
2013-01-23 16:25:00,49.0,5.2,30.09,SW,225,0.0,0.2,17,0.00,,,0.00,WUHU216HW,2013-01-23 23:25:00,
2013-01-23 16:30:00,48.6,6.4,30.09,SW,225,0.0,0.0,18,0.00,,,0.00,WUHU216HW,2013-01-23 23:30:00,
2013-01-23 16:35:00,48.1,6.0,30.10,SW,225,0.0,0.0,18,0.00,,,0.00,WUHU216HW,2013-01-23 23:35:00,
2013-01-23 16:40:00,47.9,5.8,30.09,SW,225,1.1,1.1,18,0.00,,,0.00,WUHU216HW,2013-01-23 23:40:00,
2013-01-23 16:45:00,47.3,6.9,30.09,SW,225,0.0,1.1,19,0.00,,,0.00,WUHU216HW,2013-01-23 23:45:00,
2013-01-23 16:50:00,46.8,7.8,30.10,SW,225,0.0,1.1,20,0.00,,,0.00,WUHU216HW,2013-01-23 23:50:00,
2013-01-23 16:55:00,46.4,7.6,30.10,SW,225,0.0,1.1,20,0.00,,,0.00,WUHU216HW,2013-01-23 23:55:00,
2013-01-23 17:00:00,45.9,7.1,30.10,SW,225,0.0,1.1,20,0.00,,,0.00,WUHU216HW,2013-01-24 00:00:00,
2013-01-23 17:05:00,45.5,7.7,30.11,SW,225,0.0,0.0,21,0.00,,,0.00,WUHU216HW,2013-01-24 00:05:00,
2013-01-23 17:10:00,45.0,7.3,30.11,SW,225,0.0,0.0,21,0.00,,,0.00,WUHU216HW,2013-01-24 00:10:00,
2013-01-23 17:15:00,44.8,7.2,30.11,SW,225,0.0,0.0,21,0.00,,,0.00,WUHU216HW,2013-01-24 00:15:00,
2013-01-23 17:20:00,44.5,6.8,30.11,SW,225,0.0,0.0,21,0.00,,,0.00,WUHU216HW,2013-01-24 00:20:00,
2013-01-23 17:25:00,44.3,7.6,30.11,SW,225,0.0,0.0,22,0.00,,,0.00,WUHU216HW,2013-01-24 00:25:00,
2013-01-23 17:30:00,43.9,7.3,30.11,SW,225,0.9,0.9,22,0.00,,,0.00,WUHU216HW,2013-01-24 00:30:00,
2013-01-23 17:35:00,43.9,7.3,30.11,WSW,248,0.0,0.9,22,0.00,,,0.00,WUHU216HW,2013-01-24 00:35:00,
2013-01-23 17:40:00,43.6,6.9,30.11,WSW,248,0.0,0.9,22,0.00,,,0.00,WUHU216HW,2013-01-24 00:40:00,
2013-01-23 17:45:00,43.6,6.9,30.11,WSW,248,0.0,0.0,22,0.00,,,0.00,WUHU216HW,2013-01-24 00:45:00,
2013-01-23 17:50:00,43.6,6.9,30.11,WSW,248,0.0,0.0,22,0.00,,,0.00,WUHU216HW,2013-01-24 00:50:00,
2013-01-23 18:00:00,42.3,6.8,30.12,WSW,248,0.0,0.0,23,0.00,,,0.00,WUHU216HW,2013-01-24 01:00:00,
2013-01-23 18:05:00,42.1,6.7,30.13,WSW,248,0.0,0.0,23,0.00,,,0.00,WUHU216HW,2013-01-24 01:05:00,
2013-01-23 18:10:00,41.9,6.5,30.13,WSW,248,0.0,0.0,23,0.00,,,0.00,WUHU216HW,2013-01-24 01:10:00,
2013-01-23 18:15:00,41.8,7.2,30.13,WSW,248,0.0,0.0,24,0.00,,,0.00,WUHU216HW,2013-01-24 01:15:00,
2013-01-23 18:20:00,41.8,6.3,30.13,WSW,248,0.0,0.0,23,0.00,,,0.00,WUHU216HW,2013-01-24 01:20:00,
2013-01-23 18:25:00,41.6,7.1,30.13,WSW,248,0.7,0.7,24,0.00,,,0.00,WUHU216HW,2013-01-24 01:25:00,
2013-01-23 18:30:00,41.4,6.9,30.13,WNW,293,0.0,1.6,24,0.00,,,0.00,WUHU216HW,2013-01-24 01:30:00,
2013-01-23 18:35:00,41.2,6.9,30.13,WNW,293,0.0,1.6,24,0.00,,,0.00,WUHU216HW,2013-01-24 01:35:00,
2013-01-23 18:40:00,41.0,7.6,30.13,WNW,293,0.2,0.9,25,0.00,,,0.00,WUHU216HW,2013-01-24 01:40:00,
2013-01-23 18:45:00,40.9,6.5,30.13,WNW,293,0.0,1.3,24,0.00,,,0.00,WUHU216HW,2013-01-24 01:45:00,
2013-01-23 18:50:00,40.7,7.2,30.13,WNW,293,0.4,1.3,25,0.00,,,0.00,WUHU216HW,2013-01-24 01:50:00,
2013-01-23 18:55:00,40.3,6.9,30.13,WNW,293,0.0,1.3,25,0.00,,,0.00,WUHU216HW,2013-01-24 01:55:00,
2013-01-23 19:00:00,40.3,6.9,30.13,WNW,293,0.0,0.0,25,0.00,,,0.00,WUHU216HW,2013-01-24 02:00:00,
2013-01-23 19:05:00,40.1,6.8,30.13,WNW,293,0.2,0.2,25,0.00,,,0.00,WUHU216HW,2013-01-24 02:05:00,
2013-01-23 19:10:00,40.0,6.6,30.13,WNW,293,0.0,1.1,25,0.00,,,0.00,WUHU216HW,2013-01-24 02:10:00,
2013-01-23 19:15:00,40.0,6.6,30.13,WNW,293,0.0,1.1,25,0.00,,,0.00,WUHU216HW,2013-01-24 02:15:00,
2013-01-23 19:20:00,40.0,6.6,30.13,WNW,293,0.0,0.0,25,0.00,,,0.00,WUHU216HW,2013-01-24 02:20:00,
2013-01-23 19:25:00,40.0,6.6,30.13,WNW,293,0.0,0.0,25,0.00,,,0.00,WUHU216HW,2013-01-24 02:25:00,
2013-01-23 19:30:00,39.8,6.4,30.13,WNW,293,0.0,0.0,25,0.00,,,0.00,WUHU216HW,2013-01-24 02:30:00,
2013-01-23 19:35:00,39.4,6.1,30.13,WNW,293,0.0,0.0,25,0.00,,,0.00,WUHU216HW,2013-01-24 02:35:00,
2013-01-23 19:40:00,39.2,5.9,30.13,WNW,293,0.0,0.0,25,0.00,,,0.00,WUHU216HW,2013-01-24 02:40:00,
2013-01-23 19:45:00,39.1,6.7,30.13,WNW,293,0.0,0.0,26,0.00,,,0.00,WUHU216HW,2013-01-24 02:45:00,
2013-01-23 19:50:00,38.9,5.7,30.13,WNW,293,0.2,1.1,25,0.00,,,0.00,WUHU216HW,2013-01-24 02:50:00,
2013-01-23 19:54:00,39.1,5.8,30.13,WNW,293,0.0,1.1,25,0.00,,,0.00,WUHU216HW,2013-01-24 02:54:00,
2013-01-23 19:59:00,39.1,5.8,30.13,WNW,293,0.0,0.2,25,0.00,,,0.00,WUHU216HW,2013-01-24 02:59:00,
2013-01-23 20:05:00,38.9,5.7,30.13,WNW,293,0.0,0.0,25,0.00,,,0.00,WUHU216HW,2013-01-24 03:05:00,
2013-01-23 20:09:00,38.7,5.5,30.13,WSW,248,1.3,1.3,25,0.00,,,0.00,WUHU216HW,2013-01-24 03:09:00,
2013-01-23 20:14:00,38.5,8.0,30.13,WSW,248,0.9,1.3,28,0.00,,,0.00,WUHU216HW,2013-01-24 03:14:00,
2013-01-23 20:19:00,38.5,8.0,30.13,WSW,248,0.0,0.9,28,0.00,,,0.00,WUHU216HW,2013-01-24 03:19:00,
2013-01-23 20:24:00,38.5,8.0,30.13,NW,315,0.0,0.4,28,0.00,,,0.00,WUHU216HW,2013-01-24 03:24:00,
2013-01-23 20:29:00,38.5,7.1,30.13,NW,315,0.0,0.2,27,0.00,,,0.00,WUHU216HW,2013-01-24 03:29:00,
2013-01-23 20:34:00,38.5,8.0,30.13,NW,315,0.0,0.0,28,0.00,,,0.00,WUHU216HW,2013-01-24 03:34:00,
2013-01-23 20:39:00,38.5,7.1,30.12,WSW,248,1.1,1.1,27,0.00,,,0.00,WUHU216HW,2013-01-24 03:39:00,
2013-01-23 20:44:00,38.3,6.0,30.13,WSW,248,0.0,1.1,26,0.00,,,0.00,WUHU216HW,2013-01-24 03:44:00,
2013-01-23 20:49:00,38.2,6.9,30.13,WSW,248,0.0,0.0,27,0.00,,,0.00,WUHU216HW,2013-01-24 03:49:00,
2013-01-23 20:54:00,38.2,7.7,30.12,WSW,248,0.9,0.9,28,0.00,,,0.00,WUHU216HW,2013-01-24 03:54:00,
2013-01-23 20:59:00,38.2,6.9,30.12,WSW,248,0.2,0.9,27,0.00,,,0.00,WUHU216HW,2013-01-24 03:59:00,
2013-01-23 21:04:00,38.0,6.7,30.12,WSW,248,0.0,0.9,27,0.00,,,0.00,WUHU216HW,2013-01-24 04:04:00,
2013-01-23 21:09:00,38.2,6.9,30.12,NNW,338,0.0,0.9,27,0.00,,,0.00,WUHU216HW,2013-01-24 04:09:00,
2013-01-23 21:14:00,38.2,6.9,30.12,NNW,338,0.0,1.6,27,0.00,,,0.00,WUHU216HW,2013-01-24 04:14:00,
2013-01-23 21:19:00,38.0,6.7,30.12,NNW,338,0.0,1.6,27,0.00,,,0.00,WUHU216HW,2013-01-24 04:19:00,
2013-01-23 21:24:00,37.8,6.5,30.11,West,270,0.0,2.2,27,0.00,,,0.00,WUHU216HW,2013-01-24 04:24:00,
2013-01-23 21:29:00,38.0,6.7,30.12,West,270,0.0,2.2,27,0.00,,,0.00,WUHU216HW,2013-01-24 04:29:00,
2013-01-23 21:34:00,38.3,6.9,30.12,West,270,0.0,0.9,27,0.00,,,0.00,WUHU216HW,2013-01-24 04:34:00,
2013-01-23 21:39:00,38.3,6.9,30.11,West,270,0.0,0.0,27,0.00,,,0.00,WUHU216HW,2013-01-24 04:39:00,
2013-01-23 21:44:00,38.3,8.7,30.12,West,270,0.7,1.3,29,0.00,,,0.00,WUHU216HW,2013-01-24 04:44:00,
2013-01-23 21:49:00,38.3,7.8,30.11,West,270,0.0,1.3,28,0.00,,,0.00,WUHU216HW,2013-01-24 04:49:00,
2013-01-23 21:54:00,38.2,6.9,30.11,West,270,0.0,0.7,27,0.00,,,0.00,WUHU216HW,2013-01-24 04:54:00,
2013-01-23 21:59:00,38.0,6.7,30.11,West,270,0.0,0.0,27,0.00,,,0.00,WUHU216HW,2013-01-24 04:59:00,
2013-01-23 22:00:00,38.0,6.7,30.11,West,270,0.0,0.0,27,0.00,,,0.00,WUHU216HW,2013-01-24 05:00:00,
2013-01-23 22:02:00,38.0,7.6,30.11,West,270,0.0,0.0,28,0.00,,,0.00,WUHU216HW,2013-01-24 05:02:00,
2013-01-23 22:03:00,38.0,7.6,30.11,West,270,0.0,0.0,28,0.00,,,0.00,WUHU216HW,2013-01-24 05:03:00,
2013-01-23 22:08:00,37.8,7.4,30.11,West,270,0.0,0.0,28,0.00,,,0.00,WUHU216HW,2013-01-24 05:08:00,
2013-01-23 22:13:00,37.6,7.2,30.11,SE,135,1.8,1.8,28,0.00,,,0.00,WUHU216HW,2013-01-24 05:13:00,
2013-01-23 22:18:00,37.8,8.3,30.11,SE,135,0.0,1.8,29,0.00,,,0.00,WUHU216HW,2013-01-24 05:18:00,
2013-01-23 22:23:00,38.0,8.5,30.11,SE,135,0.0,0.0,29,0.00,,,0.00,WUHU216HW,2013-01-24 05:23:00,
2013-01-23 22:28:00,38.3,7.8,30.11,SE,135,0.0,0.0,28,0.00,,,0.00,WUHU216HW,2013-01-24 05:28:00,
2013-01-23 22:33:00,38.5,8.9,30.11,SE,135,0.0,0.0,29,0.00,,,0.00,WUHU216HW,2013-01-24 05:33:00,
2013-01-23 22:38:00,38.5,8.9,30.11,SE,135,0.0,0.0,29,0.00,,,0.00,WUHU216HW,2013-01-24 05:38:00,
2013-01-23 23:00:00,37.4,7.0,30.11,South,180,0.0,0.0,28,0.00,,,0.00,WUHU216HW,2013-01-24 06:00:00,
2013-01-23 23:05:00,37.3,7.7,30.12,South,180,0.9,0.9,29,0.00,,,0.00,WUHU216HW,2013-01-24 06:05:00,
2013-01-23 23:10:00,37.1,7.7,30.11,South,180,0.0,0.9,29,0.00,,,0.00,WUHU216HW,2013-01-24 06:10:00,
2013-01-23 23:15:00,37.4,7.9,30.12,South,180,0.0,0.0,29,0.00,,,0.00,WUHU216HW,2013-01-24 06:15:00,
2013-01-23 23:20:00,37.8,8.3,30.12,North,0,0.0,0.4,29,0.00,,,0.00,WUHU216HW,2013-01-24 06:20:00,
2013-01-23 23:25:00,38.5,8.9,30.12,North,0,0.4,0.4,29,0.00,,,0.00,WUHU216HW,2013-01-24 06:25:00,
2013-01-23 23:30:00,39.1,9.4,30.12,North,0,0.0,0.7,29,0.00,,,0.00,WUHU216HW,2013-01-24 06:30:00,
2013-01-23 23:35:00,39.1,9.4,30.11,North,0,0.0,0.7,29,0.00,,,0.00,WUHU216HW,2013-01-24 06:35:00,
2013-01-23 23:40:00,38.9,9.2,30.12,North,0,0.0,0.0,29,0.00,,,0.00,WUHU216HW,2013-01-24 06:40:00,
2013-01-23 23:45:00,38.9,9.2,30.12,NNW,338,0.0,1.1,29,0.00,,,0.00,WUHU216HW,2013-01-24 06:45:00,
2013-01-23 23:50:00,38.9,9.2,30.12,NNW,338,0.9,1.6,29,0.00,,,0.00,WUHU216HW,2013-01-24 06:50:00,
2013-01-23 23:55:00,38.9,10.1,30.12,NNW,338,0.0,1.6,30,0.00,,,0.00,WUHU216HW,2013-01-24 06:55:00,